TimeEDT,TemperatureF,Dew PointF,Humidity,Sea Level PressureIn,VisibilityMPH,Wind Direction,Wind SpeedMPH,Gust SpeedMPH,PrecipitationIn,Events,Conditions,WindDirDegrees,DateUTC
12:52 AM,73.0,68.0,84,29.74,10.0,South,4.6,-,N/A,,Overcast,170,2013-06-30 04:52:00
1:52 AM,73.0,69.1,87,29.74,9.0,South,4.6,-,N/A,,Overcast,180,2013-06-30 05:52:00
2:52 AM,73.0,69.1,87,29.75,8.0,South,4.6,-,N/A,,Overcast,190,2013-06-30 06:52:00
3:52 AM,73.0,69.1,87,29.75,8.0,SSW,4.6,-,N/A,,Overcast,200,2013-06-30 07:52:00
4:52 AM,72.0,69.1,91,29.76,7.0,South,4.6,-,N/A,,Overcast,180,2013-06-30 08:52:00
5:52 AM,72.0,69.1,91,29.78,6.0,South,3.5,-,N/A,,Overcast,180,2013-06-30 09:52:00
6:52 AM,72.0,69.1,91,29.81,6.0,Calm,Calm,-,N/A,,Overcast,0,2013-06-30 10:52:00
7:16 AM,71.6,69.8,94,29.83,6.0,SSW,4.6,-,N/A,,Overcast,200,2013-06-30 11:16:00
7:52 AM,73.0,69.1,87,29.84,5.0,South,4.6,-,N/A,,Overcast,190,2013-06-30 11:52:00
8:12 AM,73.4,69.8,88,29.85,6.0,SSE,5.8,-,N/A,,Haze,160,2013-06-30 12:12:00
8:52 AM,73.9,69.1,85,29.85,6.0,SSE,4.6,-,N/A,,Haze,160,2013-06-30 12:52:00
9:35 AM,73.4,69.8,88,29.85,5.0,SSW,3.5,-,N/A,,Overcast,200,2013-06-30 13:35:00
9:52 AM,73.9,70.0,87,29.85,6.0,South,4.6,-,N/A,,Overcast,170,2013-06-30 13:52:00
10:13 AM,75.2,69.8,83,29.85,6.0,South,4.6,-,N/A,,Haze,180,2013-06-30 14:13:00
10:45 AM,77.0,69.8,78,29.86,7.0,Variable,5.8,-,N/A,,Scattered Clouds,0,2013-06-30 14:45:00
10:52 AM,78.1,70.0,76,29.86,8.0,SSE,5.8,-,N/A,,Scattered Clouds,160,2013-06-30 14:52:00
11:52 AM,80.1,70.0,71,29.85,10.0,SSE,5.8,-,N/A,,Clear,160,2013-06-30 15:52:00
12:52 PM,82.0,70.0,67,29.85,10.0,SSW,6.9,17.3,N/A,,Scattered Clouds,200,2013-06-30 16:52:00
1:48 PM,80.6,69.8,70,29.87,10.0,South,11.5,18.4,N/A,,Mostly Cloudy,180,2013-06-30 17:48:00
1:52 PM,80.1,70.0,71,29.87,10.0,South,11.5,18.4,N/A,,Mostly Cloudy,180,2013-06-30 17:52:00
2:52 PM,79.0,70.0,74,29.87,10.0,South,10.4,-,N/A,,Overcast,190,2013-06-30 18:52:00
3:47 PM,78.8,69.8,74,29.87,10.0,South,10.4,19.6,N/A,,Scattered Clouds,190,2013-06-30 19:47:00
3:52 PM,79.0,70.0,74,29.87,10.0,SSW,10.4,-,N/A,,Scattered Clouds,200,2013-06-30 19:52:00
4:03 PM,78.8,69.8,74,29.88,10.0,SSW,10.4,17.3,N/A,,Mostly Cloudy,200,2013-06-30 20:03:00
4:52 PM,77.0,69.1,76,29.89,10.0,South,10.4,-,N/A,,Overcast,180,2013-06-30 20:52:00
5:52 PM,75.0,69.1,82,29.90,10.0,South,9.2,-,N/A,,Overcast,180,2013-06-30 21:52:00
5:59 PM,75.2,69.8,83,29.90,10.0,South,10.4,-,N/A,,Overcast,180,2013-06-30 21:59:00
6:52 PM,73.9,69.1,85,29.91,10.0,South,8.1,-,N/A,,Overcast,180,2013-06-30 22:52:00
7:50 PM,71.6,69.8,94,29.92,2.5,South,5.8,-,0.04,Rain,Light Rain,180,2013-06-30 23:50:00
7:52 PM,72.0,69.1,91,29.91,4.0,SSE,4.6,-,0.04,Rain,Light Rain,160,2013-06-30 23:52:00
8:52 PM,72.0,70.0,93,29.92,8.0,SSE,3.5,-,0.00,,Overcast,150,2013-07-01 00:52:00
9:52 PM,72.0,70.0,93,29.93,6.0,SE,3.5,-,0.00,Rain,Light Rain,140,2013-07-01 01:52:00
10:52 PM,72.0,70.0,93,29.93,3.0,SSE,3.5,-,0.01,Rain,Light Rain,160,2013-07-01 02:52:00
11:25 PM,71.6,69.8,94,29.94,10.0,South,4.6,-,0.01,,Overcast,180,2013-07-01 03:25:00
11:49 PM,71.6,69.8,94,29.95,10.0,South,4.6,-,0.01,,Overcast,170,2013-07-01 03:49:00
11:52 PM,72.0,70.0,93,29.95,10.0,South,4.6,-,0.01,,Overcast,180,2013-07-01 03:52:00